Juneau International Airport Juneau US
ICAO: PAJN
IATA: JNU
Category: Medium
Scheduled Services:

Elevation: 21 ft
TransAlt. 18000 ft.

Airport Communications:
ATIS:135.2
TWEB:114
ANCHORAGE CNTR:133.9
CTAF:118.7
RDO:122.2
GND:121.9
RDO:122.15
NAT GD OPS:124.65
TWR:118.7
UNICOM:122.95

PAJN Zoom In..

If you have problems with the map follow the link
https://www.worldairports.se/pages/airport.php?
ICAO=PAJN

Runways:

(A) RW 08 length 8457 ft width 150 ft
---- / hdg 85

(B) RW 26 length 8457 ft width 150 ft
---- / hdg 265

Location; PAJN
Day. 25 / Time. 06.53 Zulu
* Altimeter: 29.49
* Temperature: 01° c. 33.8°f.
* Wind from: 100° Speed 15 kn.
Dewpoint: -02° c.
Visibility: 9 Statute Miles.
Clouds: Few 900 ft.
Clouds: Scattered 4500 ft.
Clouds: Overcast 11000 ft.
Conditions: Light Snow.

PAJN 250653Z 10015KT 9SM -SN FEW009 SCT045 OVC110 01/M02 A2949 RMK AO2 SLP985 P0000 T00061022


Wind From 100°
Speed 15 kn.

 
 
jpsmedia worldairports.se 2020   terms of use